sensor_id;sensor_type;location;lat;lon;timestamp;P1;durP1;ratioP1;P2;durP2;ratioP2
1178;SDS011;578;48.408;10.004;2024-03-08T00:01:03;42.75;;;31.42;;
1178;SDS011;578;48.408;10.004;2024-03-08T00:03:06;39.78;;;28.08;;
1178;SDS011;578;48.408;10.004;2024-03-08T00:05:10;43.83;;;31.20;;
1178;SDS011;578;48.408;10.004;2024-03-08T00:07:12;43.22;;;30.70;;
1178;SDS011;578;48.408;10.004;2024-03-08T00:09:15;43.33;;;31.15;;
1178;SDS011;578;48.408;10.004;2024-03-08T00:11:17;42.55;;;29.95;;
1178;SDS011;578;48.408;10.004;2024-03-08T00:13:19;44.78;;;29.52;;
1178;SDS011;578;48.408;10.004;2024-03-08T00:15:21;46.90;;;31.60;;
1178;SDS011;578;48.408;10.004;2024-03-08T00:17:23;46.33;;;30.58;;
1178;SDS011;578;48.408;10.004;2024-03-08T00:19:25;42.60;;;30.30;;
1178;SDS011;578;48.408;10.004;2024-03-08T00:21:26;45.47;;;31.80;;
1178;SDS011;578;48.408;10.004;2024-03-08T00:23:28;42.75;;;30.40;;
1178;SDS011;578;48.408;10.004;2024-03-08T00:25:32;43.00;;;30.27;;
1178;SDS011;578;48.408;10.004;2024-03-08T00:27:34;43.15;;;31.52;;
1178;SDS011;578;48.408;10.004;2024-03-08T00:29:35;44.03;;;31.07;;
1178;SDS011;578;48.408;10.004;2024-03-08T00:31:38;39.15;;;29.63;;
1178;SDS011;578;48.408;10.004;2024-03-08T00:33:40;42.70;;;30.70;;
1178;SDS011;578;48.408;10.004;2024-03-08T00:35:42;48.33;;;32.00;;
1178;SDS011;578;48.408;10.004;2024-03-08T00:37:43;44.53;;;29.70;;
1178;SDS011;578;48.408;10.004;2024-03-08T00:39:47;41.88;;;30.52;;
1178;SDS011;578;48.408;10.004;2024-03-08T00:41:50;42.38;;;30.25;;
1178;SDS011;578;48.408;10.004;2024-03-08T00:43:52;43.65;;;30.85;;
1178;SDS011;578;48.408;10.004;2024-03-08T00:45:54;44.75;;;31.13;;
1178;SDS011;578;48.408;10.004;2024-03-08T00:47:57;46.08;;;32.53;;
1178;SDS011;578;48.408;10.004;2024-03-08T00:49:59;48.80;;;31.70;;
1178;SDS011;578;48.408;10.004;2024-03-08T00:52:04;48.70;;;33.17;;
1178;SDS011;578;48.408;10.004;2024-03-08T00:54:08;46.88;;;30.70;;
1178;SDS011;578;48.408;10.004;2024-03-08T00:56:09;43.88;;;29.10;;
1178;SDS011;578;48.408;10.004;2024-03-08T00:58:12;47.58;;;31.23;;
1178;SDS011;578;48.408;10.004;2024-03-08T01:00:14;51.17;;;34.40;;
1178;SDS011;578;48.408;10.004;2024-03-08T01:02:17;49.03;;;32.17;;
1178;SDS011;578;48.408;10.004;2024-03-08T01:04:19;45.05;;;30.20;;
1178;SDS011;578;48.408;10.004;2024-03-08T01:06:21;49.45;;;31.25;;
1178;SDS011;578;48.408;10.004;2024-03-08T01:08:23;46.78;;;31.80;;
1178;SDS011;578;48.408;10.004;2024-03-08T01:10:25;42.83;;;31.00;;
1178;SDS011;578;48.408;10.004;2024-03-08T01:12:27;46.75;;;31.67;;
1178;SDS011;578;48.408;10.004;2024-03-08T01:14:30;44.00;;;30.33;;
1178;SDS011;578;48.408;10.004;2024-03-08T01:16:33;44.67;;;30.63;;
1178;SDS011;578;48.408;10.004;2024-03-08T01:18:34;45.40;;;31.07;;
1178;SDS011;578;48.408;10.004;2024-03-08T01:20:35;46.38;;;31.85;;
1178;SDS011;578;48.408;10.004;2024-03-08T01:22:36;44.97;;;30.53;;
1178;SDS011;578;48.408;10.004;2024-03-08T01:24:38;39.17;;;29.35;;
1178;SDS011;578;48.408;10.004;2024-03-08T01:26:40;48.75;;;32.38;;
1178;SDS011;578;48.408;10.004;2024-03-08T01:28:42;46.83;;;31.83;;
1178;SDS011;578;48.408;10.004;2024-03-08T01:30:45;40.90;;;28.67;;
1178;SDS011;578;48.408;10.004;2024-03-08T01:32:46;48.28;;;30.20;;
1178;SDS011;578;48.408;10.004;2024-03-08T01:34:48;43.85;;;31.23;;
1178;SDS011;578;48.408;10.004;2024-03-08T01:36:50;41.10;;;29.63;;
1178;SDS011;578;48.408;10.004;2024-03-08T01:38:52;41.70;;;30.98;;
1178;SDS011;578;48.408;10.004;2024-03-08T01:40:54;51.53;;;31.88;;
1178;SDS011;578;48.408;10.004;2024-03-08T01:42:56;50.05;;;30.90;;
1178;SDS011;578;48.408;10.004;2024-03-08T01:44:58;43.78;;;31.50;;
1178;SDS011;578;48.408;10.004;2024-03-08T01:47:00;46.90;;;33.03;;
1178;SDS011;578;48.408;10.004;2024-03-08T01:49:02;46.55;;;31.42;;
1178;SDS011;578;48.408;10.004;2024-03-08T01:51:05;45.28;;;30.13;;
1178;SDS011;578;48.408;10.004;2024-03-08T01:53:07;48.67;;;33.65;;
1178;SDS011;578;48.408;10.004;2024-03-08T01:55:11;47.63;;;31.48;;
1178;SDS011;578;48.408;10.004;2024-03-08T01:57:16;47.53;;;30.27;;
1178;SDS011;578;48.408;10.004;2024-03-08T01:59:18;52.13;;;33.88;;
1178;SDS011;578;48.408;10.004;2024-03-08T02:01:20;49.50;;;32.15;;
1178;SDS011;578;48.408;10.004;2024-03-08T02:03:23;44.55;;;30.65;;
1178;SDS011;578;48.408;10.004;2024-03-08T02:05:25;50.92;;;31.65;;
1178;SDS011;578;48.408;10.004;2024-03-08T02:07:27;49.78;;;32.40;;
1178;SDS011;578;48.408;10.004;2024-03-08T02:09:29;46.92;;;29.20;;
1178;SDS011;578;48.408;10.004;2024-03-08T02:11:30;45.70;;;31.60;;
1178;SDS011;578;48.408;10.004;2024-03-08T02:13:31;45.70;;;30.70;;
1178;SDS011;578;48.408;10.004;2024-03-08T02:15:50;47.10;;;32.45;;
1178;SDS011;578;48.408;10.004;2024-03-08T02:17:52;48.35;;;32.13;;
1178;SDS011;578;48.408;10.004;2024-03-08T02:19:55;49.40;;;31.60;;
1178;SDS011;578;48.408;10.004;2024-03-08T02:21:58;47.75;;;30.27;;
1178;SDS011;578;48.408;10.004;2024-03-08T02:24:04;50.42;;;33.03;;
1178;SDS011;578;48.408;10.004;2024-03-08T02:26:07;51.08;;;33.05;;
1178;SDS011;578;48.408;10.004;2024-03-08T02:28:08;45.03;;;31.73;;
1178;SDS011;578;48.408;10.004;2024-03-08T02:30:11;51.47;;;32.03;;
1178;SDS011;578;48.408;10.004;2024-03-08T02:32:13;51.80;;;33.42;;
1178;SDS011;578;48.408;10.004;2024-03-08T02:34:14;54.13;;;34.47;;
1178;SDS011;578;48.408;10.004;2024-03-08T02:36:16;50.78;;;32.55;;
1178;SDS011;578;48.408;10.004;2024-03-08T02:38:19;51.33;;;34.47;;
1178;SDS011;578;48.408;10.004;2024-03-08T02:40:24;48.58;;;31.75;;
1178;SDS011;578;48.408;10.004;2024-03-08T02:42:26;52.75;;;33.28;;
1178;SDS011;578;48.408;10.004;2024-03-08T02:44:27;48.47;;;32.50;;
1178;SDS011;578;48.408;10.004;2024-03-08T02:46:29;47.95;;;31.85;;
1178;SDS011;578;48.408;10.004;2024-03-08T02:48:31;50.97;;;33.20;;
1178;SDS011;578;48.408;10.004;2024-03-08T02:50:33;50.08;;;32.15;;
1178;SDS011;578;48.408;10.004;2024-03-08T02:52:34;55.90;;;32.92;;
1178;SDS011;578;48.408;10.004;2024-03-08T02:54:38;51.05;;;31.42;;
1178;SDS011;578;48.408;10.004;2024-03-08T02:56:39;51.50;;;31.40;;
1178;SDS011;578;48.408;10.004;2024-03-08T02:58:41;51.75;;;32.92;;
1178;SDS011;578;48.408;10.004;2024-03-08T03:00:43;47.65;;;31.42;;
1178;SDS011;578;48.408;10.004;2024-03-08T03:02:45;49.65;;;30.98;;
1178;SDS011;578;48.408;10.004;2024-03-08T03:04:46;54.60;;;32.30;;
1178;SDS011;578;48.408;10.004;2024-03-08T03:06:48;52.97;;;31.80;;
1178;SDS011;578;48.408;10.004;2024-03-08T03:08:50;50.42;;;30.42;;
1178;SDS011;578;48.408;10.004;2024-03-08T03:10:53;52.72;;;32.65;;
1178;SDS011;578;48.408;10.004;2024-03-08T03:12:56;48.58;;;31.40;;
1178;SDS011;578;48.408;10.004;2024-03-08T03:14:58;52.55;;;31.35;;
1178;SDS011;578;48.408;10.004;2024-03-08T03:16:59;51.63;;;31.60;;
1178;SDS011;578;48.408;10.004;2024-03-08T03:19:02;46.65;;;30.83;;
1178;SDS011;578;48.408;10.004;2024-03-08T03:21:05;47.75;;;30.92;;
1178;SDS011;578;48.408;10.004;2024-03-08T03:23:07;51.80;;;30.10;;
1178;SDS011;578;48.408;10.004;2024-03-08T03:25:09;45.00;;;28.98;;
1178;SDS011;578;48.408;10.004;2024-03-08T03:27:12;50.35;;;31.55;;
1178;SDS011;578;48.408;10.004;2024-03-08T03:29:15;51.08;;;30.65;;
1178;SDS011;578;48.408;10.004;2024-03-08T03:31:17;53.17;;;32.63;;
1178;SDS011;578;48.408;10.004;2024-03-08T03:33:19;49.65;;;31.45;;
1178;SDS011;578;48.408;10.004;2024-03-08T03:35:21;45.58;;;29.45;;
1178;SDS011;578;48.408;10.004;2024-03-08T03:37:23;49.13;;;32.40;;
1178;SDS011;578;48.408;10.004;2024-03-08T03:39:24;44.50;;;30.08;;
1178;SDS011;578;48.408;10.004;2024-03-08T03:41:30;53.05;;;32.30;;
1178;SDS011;578;48.408;10.004;2024-03-08T03:43:33;46.63;;;31.83;;
1178;SDS011;578;48.408;10.004;2024-03-08T03:45:35;46.40;;;29.65;;
1178;SDS011;578;48.408;10.004;2024-03-08T03:47:36;47.67;;;30.70;;
1178;SDS011;578;48.408;10.004;2024-03-08T03:49:38;47.13;;;30.73;;
1178;SDS011;578;48.408;10.004;2024-03-08T03:51:40;48.05;;;30.02;;
1178;SDS011;578;48.408;10.004;2024-03-08T03:53:42;47.47;;;29.45;;
1178;SDS011;578;48.408;10.004;2024-03-08T03:55:44;46.05;;;30.20;;
1178;SDS011;578;48.408;10.004;2024-03-08T03:57:46;43.30;;;29.10;;
1178;SDS011;578;48.408;10.004;2024-03-08T03:59:50;47.88;;;29.92;;
1178;SDS011;578;48.408;10.004;2024-03-08T04:01:52;50.33;;;31.38;;
1178;SDS011;578;48.408;10.004;2024-03-08T04:03:54;46.25;;;29.52;;
1178;SDS011;578;48.408;10.004;2024-03-08T04:05:56;45.63;;;28.42;;
1178;SDS011;578;48.408;10.004;2024-03-08T04:07:58;45.42;;;28.65;;
1178;SDS011;578;48.408;10.004;2024-03-08T04:09:59;45.42;;;28.25;;
1178;SDS011;578;48.408;10.004;2024-03-08T04:12:00;40.73;;;28.00;;
1178;SDS011;578;48.408;10.004;2024-03-08T04:14:02;43.50;;;30.85;;
1178;SDS011;578;48.408;10.004;2024-03-08T04:16:06;48.17;;;29.00;;
1178;SDS011;578;48.408;10.004;2024-03-08T04:18:08;42.67;;;28.65;;
1178;SDS011;578;48.408;10.004;2024-03-08T04:20:09;48.60;;;31.83;;
1178;SDS011;578;48.408;10.004;2024-03-08T04:22:14;43.42;;;29.30;;
1178;SDS011;578;48.408;10.004;2024-03-08T04:24:16;42.67;;;28.00;;
1178;SDS011;578;48.408;10.004;2024-03-08T04:26:18;42.88;;;29.50;;
1178;SDS011;578;48.408;10.004;2024-03-08T04:28:19;39.20;;;27.70;;
1178;SDS011;578;48.408;10.004;2024-03-08T04:30:21;45.38;;;28.38;;
1178;SDS011;578;48.408;10.004;2024-03-08T04:32:24;42.60;;;27.85;;
1178;SDS011;578;48.408;10.004;2024-03-08T04:34:26;48.80;;;28.80;;
1178;SDS011;578;48.408;10.004;2024-03-08T04:36:28;44.47;;;30.23;;
1178;SDS011;578;48.408;10.004;2024-03-08T04:38:30;40.15;;;28.13;;
1178;SDS011;578;48.408;10.004;2024-03-08T04:40:32;47.65;;;30.95;;
1178;SDS011;578;48.408;10.004;2024-03-08T04:42:34;40.83;;;28.95;;
1178;SDS011;578;48.408;10.004;2024-03-08T04:44:38;38.47;;;27.52;;
1178;SDS011;578;48.408;10.004;2024-03-08T04:46:40;49.08;;;30.50;;
1178;SDS011;578;48.408;10.004;2024-03-08T04:48:43;47.70;;;30.58;;
1178;SDS011;578;48.408;10.004;2024-03-08T04:50:45;41.42;;;29.45;;
1178;SDS011;578;48.408;10.004;2024-03-08T04:52:46;45.78;;;30.35;;
1178;SDS011;578;48.408;10.004;2024-03-08T04:54:47;45.00;;;27.00;;
1178;SDS011;578;48.408;10.004;2024-03-08T04:56:49;40.42;;;28.40;;
1178;SDS011;578;48.408;10.004;2024-03-08T04:58:51;47.95;;;29.73;;
1178;SDS011;578;48.408;10.004;2024-03-08T05:00:53;41.80;;;28.90;;
1178;SDS011;578;48.408;10.004;2024-03-08T05:02:55;41.78;;;27.98;;
1178;SDS011;578;48.408;10.004;2024-03-08T05:04:59;38.10;;;27.27;;
1178;SDS011;578;48.408;10.004;2024-03-08T05:07:02;41.95;;;28.92;;
1178;SDS011;578;48.408;10.004;2024-03-08T05:09:04;38.45;;;28.83;;
1178;SDS011;578;48.408;10.004;2024-03-08T05:11:13;41.15;;;29.27;;
1178;SDS011;578;48.408;10.004;2024-03-08T05:13:15;43.50;;;27.42;;
1178;SDS011;578;48.408;10.004;2024-03-08T05:15:18;42.03;;;28.77;;
1178;SDS011;578;48.408;10.004;2024-03-08T05:17:21;40.58;;;27.52;;
1178;SDS011;578;48.408;10.004;2024-03-08T05:19:24;39.90;;;27.20;;
1178;SDS011;578;48.408;10.004;2024-03-08T05:21:27;38.13;;;28.65;;
1178;SDS011;578;48.408;10.004;2024-03-08T05:23:29;38.17;;;26.52;;
1178;SDS011;578;48.408;10.004;2024-03-08T05:25:30;37.97;;;27.75;;
1178;SDS011;578;48.408;10.004;2024-03-08T05:27:32;37.50;;;27.95;;
1178;SDS011;578;48.408;10.004;2024-03-08T05:29:33;36.23;;;25.60;;
1178;SDS011;578;48.408;10.004;2024-03-08T05:31:36;42.08;;;27.80;;
1178;SDS011;578;48.408;10.004;2024-03-08T05:33:44;34.15;;;25.60;;
1178;SDS011;578;48.408;10.004;2024-03-08T05:35:46;37.75;;;27.95;;
1178;SDS011;578;48.408;10.004;2024-03-08T05:37:50;38.70;;;27.17;;
1178;SDS011;578;48.408;10.004;2024-03-08T05:39:51;36.60;;;26.27;;
1178;SDS011;578;48.408;10.004;2024-03-08T05:41:52;39.87;;;27.07;;
1178;SDS011;578;48.408;10.004;2024-03-08T05:43:55;39.08;;;25.30;;
1178;SDS011;578;48.408;10.004;2024-03-08T05:45:57;37.17;;;26.00;;
1178;SDS011;578;48.408;10.004;2024-03-08T05:47:58;40.97;;;26.98;;
1178;SDS011;578;48.408;10.004;2024-03-08T05:50:01;36.22;;;26.05;;
1178;SDS011;578;48.408;10.004;2024-03-08T05:52:04;40.58;;;26.88;;
1178;SDS011;578;48.408;10.004;2024-03-08T05:54:07;37.17;;;26.40;;
1178;SDS011;578;48.408;10.004;2024-03-08T05:56:11;39.38;;;27.90;;
1178;SDS011;578;48.408;10.004;2024-03-08T05:58:11;33.40;;;24.63;;
1178;SDS011;578;48.408;10.004;2024-03-08T06:00:13;40.40;;;26.98;;
1178;SDS011;578;48.408;10.004;2024-03-08T06:02:16;36.67;;;26.83;;
1178;SDS011;578;48.408;10.004;2024-03-08T06:04:19;41.47;;;28.50;;
1178;SDS011;578;48.408;10.004;2024-03-08T06:06:21;37.45;;;28.50;;
1178;SDS011;578;48.408;10.004;2024-03-08T06:08:23;37.35;;;25.85;;
1178;SDS011;578;48.408;10.004;2024-03-08T06:10:31;36.92;;;25.45;;
1178;SDS011;578;48.408;10.004;2024-03-08T06:12:33;35.72;;;25.05;;
1178;SDS011;578;48.408;10.004;2024-03-08T06:14:40;37.92;;;25.02;;
1178;SDS011;578;48.408;10.004;2024-03-08T06:16:41;39.20;;;26.45;;
1178;SDS011;578;48.408;10.004;2024-03-08T06:18:43;37.55;;;27.05;;
1178;SDS011;578;48.408;10.004;2024-03-08T06:20:46;39.20;;;26.80;;
1178;SDS011;578;48.408;10.004;2024-03-08T06:22:48;36.90;;;26.67;;
1178;SDS011;578;48.408;10.004;2024-03-08T06:24:50;36.70;;;26.45;;
1178;SDS011;578;48.408;10.004;2024-03-08T06:26:53;40.92;;;25.58;;
1178;SDS011;578;48.408;10.004;2024-03-08T06:28:54;36.35;;;26.50;;
1178;SDS011;578;48.408;10.004;2024-03-08T06:30:56;45.75;;;27.20;;
1178;SDS011;578;48.408;10.004;2024-03-08T06:32:58;38.22;;;26.85;;
1178;SDS011;578;48.408;10.004;2024-03-08T06:35:00;37.58;;;26.40;;
1178;SDS011;578;48.408;10.004;2024-03-08T06:37:01;37.38;;;26.67;;
1178;SDS011;578;48.408;10.004;2024-03-08T06:39:03;36.60;;;26.40;;
1178;SDS011;578;48.408;10.004;2024-03-08T06:41:09;33.55;;;25.77;;
1178;SDS011;578;48.408;10.004;2024-03-08T06:43:16;33.58;;;25.38;;
1178;SDS011;578;48.408;10.004;2024-03-08T06:45:18;37.17;;;26.15;;
1178;SDS011;578;48.408;10.004;2024-03-08T06:47:21;35.80;;;26.20;;
1178;SDS011;578;48.408;10.004;2024-03-08T06:49:25;37.50;;;24.20;;
1178;SDS011;578;48.408;10.004;2024-03-08T06:51:27;35.83;;;25.25;;
1178;SDS011;578;48.408;10.004;2024-03-08T06:53:28;37.40;;;26.05;;
1178;SDS011;578;48.408;10.004;2024-03-08T06:55:30;38.92;;;26.38;;
1178;SDS011;578;48.408;10.004;2024-03-08T06:57:33;38.95;;;25.05;;
1178;SDS011;578;48.408;10.004;2024-03-08T06:59:36;35.50;;;25.65;;
1178;SDS011;578;48.408;10.004;2024-03-08T07:01:37;38.08;;;25.95;;
1178;SDS011;578;48.408;10.004;2024-03-08T07:03:38;40.35;;;26.15;;
1178;SDS011;578;48.408;10.004;2024-03-08T07:05:44;35.15;;;25.10;;
1178;SDS011;578;48.408;10.004;2024-03-08T07:07:46;37.55;;;25.60;;
1178;SDS011;578;48.408;10.004;2024-03-08T07:09:49;35.42;;;26.90;;
1178;SDS011;578;48.408;10.004;2024-03-08T07:11:51;35.60;;;26.05;;
1178;SDS011;578;48.408;10.004;2024-03-08T07:13:54;35.08;;;24.73;;
1178;SDS011;578;48.408;10.004;2024-03-08T07:15:58;34.28;;;24.60;;
1178;SDS011;578;48.408;10.004;2024-03-08T07:18:01;35.45;;;25.02;;
1178;SDS011;578;48.408;10.004;2024-03-08T07:20:02;36.15;;;23.85;;
1178;SDS011;578;48.408;10.004;2024-03-08T07:22:08;35.95;;;26.27;;
1178;SDS011;578;48.408;10.004;2024-03-08T07:24:09;35.33;;;24.42;;
1178;SDS011;578;48.408;10.004;2024-03-08T07:26:27;38.08;;;27.58;;
1178;SDS011;578;48.408;10.004;2024-03-08T07:28:30;36.53;;;27.35;;
1178;SDS011;578;48.408;10.004;2024-03-08T07:30:32;39.08;;;26.92;;
1178;SDS011;578;48.408;10.004;2024-03-08T07:32:52;36.42;;;25.35;;
1178;SDS011;578;48.408;10.004;2024-03-08T07:34:54;35.58;;;26.20;;
1178;SDS011;578;48.408;10.004;2024-03-08T07:36:56;37.00;;;24.90;;
1178;SDS011;578;48.408;10.004;2024-03-08T07:38:58;35.80;;;24.95;;
1178;SDS011;578;48.408;10.004;2024-03-08T07:40:59;35.27;;;24.80;;
1178;SDS011;578;48.408;10.004;2024-03-08T07:43:01;33.67;;;25.58;;
1178;SDS011;578;48.408;10.004;2024-03-08T07:45:03;41.10;;;27.10;;
1178;SDS011;578;48.408;10.004;2024-03-08T07:47:08;36.42;;;26.20;;
1178;SDS011;578;48.408;10.004;2024-03-08T07:49:11;33.78;;;24.73;;
1178;SDS011;578;48.408;10.004;2024-03-08T07:51:12;38.60;;;27.27;;
1178;SDS011;578;48.408;10.004;2024-03-08T07:53:17;35.65;;;24.58;;
1178;SDS011;578;48.408;10.004;2024-03-08T07:55:19;36.10;;;27.02;;
1178;SDS011;578;48.408;10.004;2024-03-08T07:57:24;39.60;;;25.98;;
1178;SDS011;578;48.408;10.004;2024-03-08T07:59:26;34.38;;;25.15;;
1178;SDS011;578;48.408;10.004;2024-03-08T08:01:28;35.83;;;24.70;;
1178;SDS011;578;48.408;10.004;2024-03-08T08:03:30;34.83;;;25.05;;
1178;SDS011;578;48.408;10.004;2024-03-08T08:05:33;34.85;;;26.00;;
1178;SDS011;578;48.408;10.004;2024-03-08T08:07:35;37.30;;;26.38;;
1178;SDS011;578;48.408;10.004;2024-03-08T08:09:37;34.08;;;24.65;;
1178;SDS011;578;48.408;10.004;2024-03-08T08:11:39;36.90;;;24.30;;
1178;SDS011;578;48.408;10.004;2024-03-08T08:13:43;33.90;;;25.42;;
1178;SDS011;578;48.408;10.004;2024-03-08T08:15:45;31.38;;;23.88;;
1178;SDS011;578;48.408;10.004;2024-03-08T08:17:47;33.83;;;24.70;;
1178;SDS011;578;48.408;10.004;2024-03-08T08:19:48;30.45;;;24.23;;
1178;SDS011;578;48.408;10.004;2024-03-08T08:21:51;36.75;;;26.60;;
1178;SDS011;578;48.408;10.004;2024-03-08T08:23:53;32.83;;;23.92;;
1178;SDS011;578;48.408;10.004;2024-03-08T08:25:55;34.72;;;25.13;;
1178;SDS011;578;48.408;10.004;2024-03-08T08:27:57;33.65;;;23.73;;
1178;SDS011;578;48.408;10.004;2024-03-08T08:29:59;32.47;;;23.83;;
1178;SDS011;578;48.408;10.004;2024-03-08T08:32:00;35.20;;;24.10;;
1178;SDS011;578;48.408;10.004;2024-03-08T08:34:02;31.90;;;24.85;;
1178;SDS011;578;48.408;10.004;2024-03-08T08:36:05;33.78;;;24.67;;
1178;SDS011;578;48.408;10.004;2024-03-08T08:38:08;31.83;;;23.83;;
1178;SDS011;578;48.408;10.004;2024-03-08T08:40:11;33.58;;;24.00;;
1178;SDS011;578;48.408;10.004;2024-03-08T08:42:17;30.58;;;22.15;;
1178;SDS011;578;48.408;10.004;2024-03-08T08:44:19;33.50;;;24.52;;
1178;SDS011;578;48.408;10.004;2024-03-08T08:46:21;32.00;;;23.15;;
1178;SDS011;578;48.408;10.004;2024-03-08T08:48:23;32.28;;;23.33;;
1178;SDS011;578;48.408;10.004;2024-03-08T08:50:25;37.03;;;26.33;;
1178;SDS011;578;48.408;10.004;2024-03-08T08:52:28;29.00;;;22.58;;
1178;SDS011;578;48.408;10.004;2024-03-08T08:54:31;31.15;;;22.63;;
1178;SDS011;578;48.408;10.004;2024-03-08T08:56:33;32.35;;;22.55;;
1178;SDS011;578;48.408;10.004;2024-03-08T08:58:35;32.67;;;23.02;;
1178;SDS011;578;48.408;10.004;2024-03-08T09:00:37;34.30;;;24.55;;
1178;SDS011;578;48.408;10.004;2024-03-08T09:02:39;30.13;;;22.20;;
1178;SDS011;578;48.408;10.004;2024-03-08T09:04:41;31.27;;;24.77;;
1178;SDS011;578;48.408;10.004;2024-03-08T09:06:43;30.85;;;23.40;;
1178;SDS011;578;48.408;10.004;2024-03-08T09:08:45;35.17;;;23.77;;
1178;SDS011;578;48.408;10.004;2024-03-08T09:10:48;31.10;;;24.13;;
1178;SDS011;578;48.408;10.004;2024-03-08T09:12:50;30.85;;;23.60;;
1178;SDS011;578;48.408;10.004;2024-03-08T09:14:52;32.03;;;24.23;;
1178;SDS011;578;48.408;10.004;2024-03-08T09:16:54;30.20;;;23.00;;
1178;SDS011;578;48.408;10.004;2024-03-08T09:18:56;34.40;;;23.77;;
1178;SDS011;578;48.408;10.004;2024-03-08T09:20:58;35.85;;;23.75;;
1178;SDS011;578;48.408;10.004;2024-03-08T09:23:00;32.85;;;24.10;;
1178;SDS011;578;48.408;10.004;2024-03-08T09:25:02;31.10;;;23.58;;
1178;SDS011;578;48.408;10.004;2024-03-08T09:27:06;33.58;;;24.80;;
1178;SDS011;578;48.408;10.004;2024-03-08T09:29:09;29.42;;;23.27;;
1178;SDS011;578;48.408;10.004;2024-03-08T09:31:11;34.85;;;24.52;;
1178;SDS011;578;48.408;10.004;2024-03-08T09:33:13;34.88;;;25.13;;
1178;SDS011;578;48.408;10.004;2024-03-08T09:35:19;33.97;;;24.95;;
1178;SDS011;578;48.408;10.004;2024-03-08T09:37:21;34.60;;;23.27;;
1178;SDS011;578;48.408;10.004;2024-03-08T09:39:23;33.47;;;25.27;;
1178;SDS011;578;48.408;10.004;2024-03-08T09:41:24;33.45;;;24.83;;
1178;SDS011;578;48.408;10.004;2024-03-08T09:43:28;32.03;;;25.05;;
1178;SDS011;578;48.408;10.004;2024-03-08T09:45:30;32.03;;;24.42;;
1178;SDS011;578;48.408;10.004;2024-03-08T09:47:36;39.53;;;24.10;;
1178;SDS011;578;48.408;10.004;2024-03-08T09:49:40;30.02;;;22.85;;
1178;SDS011;578;48.408;10.004;2024-03-08T09:51:43;32.55;;;23.60;;
1178;SDS011;578;48.408;10.004;2024-03-08T09:53:46;33.97;;;24.15;;
1178;SDS011;578;48.408;10.004;2024-03-08T09:55:46;30.23;;;22.73;;
1178;SDS011;578;48.408;10.004;2024-03-08T09:57:49;32.50;;;23.05;;
1178;SDS011;578;48.408;10.004;2024-03-08T10:00:12;28.75;;;22.55;;
1178;SDS011;578;48.408;10.004;2024-03-08T10:02:24;32.78;;;23.70;;
1178;SDS011;578;48.408;10.004;2024-03-08T10:04:26;31.83;;;24.05;;
1178;SDS011;578;48.408;10.004;2024-03-08T10:06:30;30.63;;;23.13;;
1178;SDS011;578;48.408;10.004;2024-03-08T10:08:32;28.13;;;22.00;;
1178;SDS011;578;48.408;10.004;2024-03-08T10:10:33;31.60;;;22.10;;
1178;SDS011;578;48.408;10.004;2024-03-08T10:12:35;29.25;;;21.50;;
1178;SDS011;578;48.408;10.004;2024-03-08T10:14:40;31.17;;;22.75;;
1178;SDS011;578;48.408;10.004;2024-03-08T10:16:44;28.75;;;22.50;;
1178;SDS011;578;48.408;10.004;2024-03-08T10:18:47;30.70;;;23.60;;
1178;SDS011;578;48.408;10.004;2024-03-08T10:21:01;29.63;;;23.65;;
1178;SDS011;578;48.408;10.004;2024-03-08T10:23:05;30.55;;;22.13;;
1178;SDS011;578;48.408;10.004;2024-03-08T10:25:08;31.27;;;22.88;;
1178;SDS011;578;48.408;10.004;2024-03-08T10:27:11;31.90;;;24.02;;
1178;SDS011;578;48.408;10.004;2024-03-08T10:29:13;32.90;;;24.15;;
1178;SDS011;578;48.408;10.004;2024-03-08T10:31:15;30.35;;;22.95;;
1178;SDS011;578;48.408;10.004;2024-03-08T10:33:19;29.77;;;22.67;;
1178;SDS011;578;48.408;10.004;2024-03-08T10:35:21;28.98;;;23.27;;
1178;SDS011;578;48.408;10.004;2024-03-08T10:37:24;31.63;;;23.48;;
1178;SDS011;578;48.408;10.004;2024-03-08T10:39:28;31.13;;;23.50;;
1178;SDS011;578;48.408;10.004;2024-03-08T10:41:35;32.40;;;23.10;;
1178;SDS011;578;48.408;10.004;2024-03-08T10:43:46;32.08;;;24.42;;
1178;SDS011;578;48.408;10.004;2024-03-08T10:46:01;29.42;;;22.85;;
1178;SDS011;578;48.408;10.004;2024-03-08T10:48:14;29.05;;;23.50;;
1178;SDS011;578;48.408;10.004;2024-03-08T10:50:28;33.20;;;23.75;;
1178;SDS011;578;48.408;10.004;2024-03-08T10:52:31;36.03;;;23.75;;
1178;SDS011;578;48.408;10.004;2024-03-08T10:54:36;33.20;;;22.35;;
1178;SDS011;578;48.408;10.004;2024-03-08T10:56:39;30.85;;;24.17;;
1178;SDS011;578;48.408;10.004;2024-03-08T10:58:41;31.77;;;22.55;;
1178;SDS011;578;48.408;10.004;2024-03-08T11:00:45;31.42;;;22.90;;
1178;SDS011;578;48.408;10.004;2024-03-08T11:02:50;30.00;;;23.08;;
1178;SDS011;578;48.408;10.004;2024-03-08T11:04:52;27.88;;;21.13;;
1178;SDS011;578;48.408;10.004;2024-03-08T11:07:00;32.55;;;22.98;;
1178;SDS011;578;48.408;10.004;2024-03-08T11:09:08;29.73;;;22.95;;
1178;SDS011;578;48.408;10.004;2024-03-08T11:11:24;29.20;;;22.65;;
1178;SDS011;578;48.408;10.004;2024-03-08T11:13:33;28.75;;;22.13;;
1178;SDS011;578;48.408;10.004;2024-03-08T11:15:34;30.10;;;23.40;;
1178;SDS011;578;48.408;10.004;2024-03-08T11:17:42;32.38;;;23.75;;
1178;SDS011;578;48.408;10.004;2024-03-08T11:19:47;30.90;;;22.80;;
1178;SDS011;578;48.408;10.004;2024-03-08T11:21:50;32.97;;;23.63;;
1178;SDS011;578;48.408;10.004;2024-03-08T11:24:06;29.17;;;22.77;;
1178;SDS011;578;48.408;10.004;2024-03-08T11:26:17;26.95;;;21.45;;
1178;SDS011;578;48.408;10.004;2024-03-08T11:28:20;26.65;;;20.77;;
1178;SDS011;578;48.408;10.004;2024-03-08T11:30:25;29.42;;;22.08;;
1178;SDS011;578;48.408;10.004;2024-03-08T11:32:27;27.55;;;21.23;;
1178;SDS011;578;48.408;10.004;2024-03-08T11:34:31;31.15;;;24.10;;
1178;SDS011;578;48.408;10.004;2024-03-08T11:36:33;27.13;;;22.70;;
1178;SDS011;578;48.408;10.004;2024-03-08T11:38:41;28.98;;;22.65;;
1178;SDS011;578;48.408;10.004;2024-03-08T11:40:44;28.13;;;22.10;;
1178;SDS011;578;48.408;10.004;2024-03-08T11:42:49;26.63;;;21.45;;
1178;SDS011;578;48.408;10.004;2024-03-08T11:44:51;29.00;;;22.60;;
1178;SDS011;578;48.408;10.004;2024-03-08T11:46:53;27.65;;;22.20;;
1178;SDS011;578;48.408;10.004;2024-03-08T11:48:55;26.92;;;20.05;;
1178;SDS011;578;48.408;10.004;2024-03-08T11:50:58;28.50;;;22.48;;
1178;SDS011;578;48.408;10.004;2024-03-08T11:53:02;26.95;;;21.00;;
1178;SDS011;578;48.408;10.004;2024-03-08T11:55:06;31.20;;;21.58;;
1178;SDS011;578;48.408;10.004;2024-03-08T11:57:08;30.95;;;23.13;;
1178;SDS011;578;48.408;10.004;2024-03-08T11:59:11;27.70;;;22.40;;
1178;SDS011;578;48.408;10.004;2024-03-08T12:01:12;34.45;;;22.20;;
1178;SDS011;578;48.408;10.004;2024-03-08T12:03:14;28.13;;;21.45;;
1178;SDS011;578;48.408;10.004;2024-03-08T12:05:17;24.63;;;21.27;;
1178;SDS011;578;48.408;10.004;2024-03-08T12:07:20;27.63;;;21.92;;
1178;SDS011;578;48.408;10.004;2024-03-08T12:09:22;27.52;;;21.95;;
1178;SDS011;578;48.408;10.004;2024-03-08T12:11:24;29.10;;;23.10;;
1178;SDS011;578;48.408;10.004;2024-03-08T12:13:26;28.20;;;22.50;;
1178;SDS011;578;48.408;10.004;2024-03-08T12:15:29;31.95;;;24.30;;
1178;SDS011;578;48.408;10.004;2024-03-08T12:17:32;33.00;;;24.70;;
1178;SDS011;578;48.408;10.004;2024-03-08T12:19:34;34.25;;;24.92;;
1178;SDS011;578;48.408;10.004;2024-03-08T12:21:38;30.52;;;23.70;;